sensor_id;sensor_type;location;lat;lon;timestamp;temperature;humidity
47336;DHT22;33068;51.990;5.926;2023-02-28T00:00:12;1.20;99.90
47336;DHT22;33068;51.990;5.926;2023-02-28T00:02:41;1.30;99.90
47336;DHT22;33068;51.990;5.926;2023-02-28T00:05:10;1.40;99.90
47336;DHT22;33068;51.990;5.926;2023-02-28T00:07:38;1.50;99.90
47336;DHT22;33068;51.990;5.926;2023-02-28T00:10:10;1.50;99.90
47336;DHT22;33068;51.990;5.926;2023-02-28T00:12:37;1.40;99.90
47336;DHT22;33068;51.990;5.926;2023-02-28T00:15:09;1.50;99.90
47336;DHT22;33068;51.990;5.926;2023-02-28T00:17:36;1.60;99.90
47336;DHT22;33068;51.990;5.926;2023-02-28T00:20:05;1.60;99.90
47336;DHT22;33068;51.990;5.926;2023-02-28T00:22:34;1.70;99.90
47336;DHT22;33068;51.990;5.926;2023-02-28T00:25:01;1.80;99.90
47336;DHT22;33068;51.990;5.926;2023-02-28T00:27:28;1.80;99.90
47336;DHT22;33068;51.990;5.926;2023-02-28T00:29:56;1.90;99.90
47336;DHT22;33068;51.990;5.926;2023-02-28T00:32:24;1.90;99.90
47336;DHT22;33068;51.990;5.926;2023-02-28T00:34:53;1.90;99.90
47336;DHT22;33068;51.990;5.926;2023-02-28T00:37:20;1.90;99.90
47336;DHT22;33068;51.990;5.926;2023-02-28T00:39:47;1.90;99.90
47336;DHT22;33068;51.990;5.926;2023-02-28T00:42:15;1.90;99.90
47336;DHT22;33068;51.990;5.926;2023-02-28T00:44:42;2.00;99.90
47336;DHT22;33068;51.990;5.926;2023-02-28T00:47:11;1.90;99.90
47336;DHT22;33068;51.990;5.926;2023-02-28T00:49:39;2.00;99.90
47336;DHT22;33068;51.990;5.926;2023-02-28T00:52:08;2.00;99.90
47336;DHT22;33068;51.990;5.926;2023-02-28T00:54:36;2.10;99.90
47336;DHT22;33068;51.990;5.926;2023-02-28T00:57:03;2.10;99.90
47336;DHT22;33068;51.990;5.926;2023-02-28T00:59:31;2.10;99.90
47336;DHT22;33068;51.990;5.926;2023-02-28T01:01:58;2.10;99.90
47336;DHT22;33068;51.990;5.926;2023-02-28T01:04:25;2.00;99.90
47336;DHT22;33068;51.990;5.926;2023-02-28T01:06:54;2.00;99.90
47336;DHT22;33068;51.990;5.926;2023-02-28T01:09:21;2.00;99.90
47336;DHT22;33068;51.990;5.926;2023-02-28T01:11:48;2.20;99.90
47336;DHT22;33068;51.990;5.926;2023-02-28T01:14:16;2.20;99.90
47336;DHT22;33068;51.990;5.926;2023-02-28T01:16:45;2.10;99.90
47336;DHT22;33068;51.990;5.926;2023-02-28T01:19:12;2.20;99.90
47336;DHT22;33068;51.990;5.926;2023-02-28T01:21:40;2.20;99.90
47336;DHT22;33068;51.990;5.926;2023-02-28T01:24:08;2.20;99.90
47336;DHT22;33068;51.990;5.926;2023-02-28T01:26:35;2.20;99.90
47336;DHT22;33068;51.990;5.926;2023-02-28T01:29:06;2.20;99.90
47336;DHT22;33068;51.990;5.926;2023-02-28T01:31:33;2.10;99.90
47336;DHT22;33068;51.990;5.926;2023-02-28T01:34:00;2.20;99.90
47336;DHT22;33068;51.990;5.926;2023-02-28T01:36:28;2.20;99.90
47336;DHT22;33068;51.990;5.926;2023-02-28T01:38:55;2.20;99.90
47336;DHT22;33068;51.990;5.926;2023-02-28T01:41:26;2.20;99.90
47336;DHT22;33068;51.990;5.926;2023-02-28T01:43:59;2.10;99.90
47336;DHT22;33068;51.990;5.926;2023-02-28T01:46:29;2.30;99.90
47336;DHT22;33068;51.990;5.926;2023-02-28T01:49:02;2.20;99.90
47336;DHT22;33068;51.990;5.926;2023-02-28T01:51:35;2.10;99.90
47336;DHT22;33068;51.990;5.926;2023-02-28T01:54:07;2.20;99.90
47336;DHT22;33068;51.990;5.926;2023-02-28T01:56:44;2.10;99.90
47336;DHT22;33068;51.990;5.926;2023-02-28T01:59:16;2.10;99.90
47336;DHT22;33068;51.990;5.926;2023-02-28T02:01:47;2.00;99.90
47336;DHT22;33068;51.990;5.926;2023-02-28T02:04:15;2.10;99.90
47336;DHT22;33068;51.990;5.926;2023-02-28T02:06:44;2.00;99.90
47336;DHT22;33068;51.990;5.926;2023-02-28T02:09:12;2.00;99.90
47336;DHT22;33068;51.990;5.926;2023-02-28T02:11:43;2.20;99.90
47336;DHT22;33068;51.990;5.926;2023-02-28T02:14:36;1.90;99.90
47336;DHT22;33068;51.990;5.926;2023-02-28T02:17:20;2.00;99.90
47336;DHT22;33068;51.990;5.926;2023-02-28T02:23:27;1.90;99.90
47336;DHT22;33068;51.990;5.926;2023-02-28T02:26:12;1.90;99.90
47336;DHT22;33068;51.990;5.926;2023-02-28T02:29:22;1.90;99.90
47336;DHT22;33068;51.990;5.926;2023-02-28T02:35:02;1.90;99.90
47336;DHT22;33068;51.990;5.926;2023-02-28T02:37:37;1.90;99.90
47336;DHT22;33068;51.990;5.926;2023-02-28T02:40:12;1.90;99.90
47336;DHT22;33068;51.990;5.926;2023-02-28T02:42:45;2.10;99.90
47336;DHT22;33068;51.990;5.926;2023-02-28T02:45:19;2.00;99.90
47336;DHT22;33068;51.990;5.926;2023-02-28T02:47:50;2.00;99.90
47336;DHT22;33068;51.990;5.926;2023-02-28T02:50:23;2.00;99.90
47336;DHT22;33068;51.990;5.926;2023-02-28T02:52:54;2.10;99.90
47336;DHT22;33068;51.990;5.926;2023-02-28T02:55:23;2.00;99.90
47336;DHT22;33068;51.990;5.926;2023-02-28T02:57:53;2.10;99.90
47336;DHT22;33068;51.990;5.926;2023-02-28T03:00:25;2.10;99.90
47336;DHT22;33068;51.990;5.926;2023-02-28T03:02:54;2.10;99.90
47336;DHT22;33068;51.990;5.926;2023-02-28T03:05:26;2.10;99.90
47336;DHT22;33068;51.990;5.926;2023-02-28T03:07:54;2.10;99.90
47336;DHT22;33068;51.990;5.926;2023-02-28T03:10:31;2.00;99.90
47336;DHT22;33068;51.990;5.926;2023-02-28T03:13:09;2.10;99.90
47336;DHT22;33068;51.990;5.926;2023-02-28T03:15:46;2.10;99.90
47336;DHT22;33068;51.990;5.926;2023-02-28T03:18:18;2.10;99.90
47336;DHT22;33068;51.990;5.926;2023-02-28T03:20:57;1.90;99.90
47336;DHT22;33068;51.990;5.926;2023-02-28T03:23:35;2.00;99.90
47336;DHT22;33068;51.990;5.926;2023-02-28T03:26:12;1.90;99.90
47336;DHT22;33068;51.990;5.926;2023-02-28T03:28:43;1.90;99.90
47336;DHT22;33068;51.990;5.926;2023-02-28T03:31:17;2.00;99.90
47336;DHT22;33068;51.990;5.926;2023-02-28T03:33:50;2.00;99.90
47336;DHT22;33068;51.990;5.926;2023-02-28T03:36:24;2.00;99.90
47336;DHT22;33068;51.990;5.926;2023-02-28T03:38:55;2.00;99.90
47336;DHT22;33068;51.990;5.926;2023-02-28T03:41:31;2.00;99.90
47336;DHT22;33068;51.990;5.926;2023-02-28T03:44:03;2.00;99.90
47336;DHT22;33068;51.990;5.926;2023-02-28T03:46:38;2.10;99.90
47336;DHT22;33068;51.990;5.926;2023-02-28T03:49:14;2.00;99.90
47336;DHT22;33068;51.990;5.926;2023-02-28T03:51:45;2.00;99.90
47336;DHT22;33068;51.990;5.926;2023-02-28T03:54:16;2.00;99.90
47336;DHT22;33068;51.990;5.926;2023-02-28T03:56:48;2.00;99.90
47336;DHT22;33068;51.990;5.926;2023-02-28T03:59:20;2.00;99.90
47336;DHT22;33068;51.990;5.926;2023-02-28T04:01:49;2.10;99.90
47336;DHT22;33068;51.990;5.926;2023-02-28T04:04:18;2.00;99.90
47336;DHT22;33068;51.990;5.926;2023-02-28T04:06:49;2.10;99.90
47336;DHT22;33068;51.990;5.926;2023-02-28T04:09:17;2.00;99.90
47336;DHT22;33068;51.990;5.926;2023-02-28T04:11:45;2.00;99.90
47336;DHT22;33068;51.990;5.926;2023-02-28T04:14:13;2.00;99.90
47336;DHT22;33068;51.990;5.926;2023-02-28T04:16:41;2.10;99.90
47336;DHT22;33068;51.990;5.926;2023-02-28T04:19:10;2.10;99.90
47336;DHT22;33068;51.990;5.926;2023-02-28T04:21:39;2.10;99.90
47336;DHT22;33068;51.990;5.926;2023-02-28T04:24:09;2.10;99.90
47336;DHT22;33068;51.990;5.926;2023-02-28T04:26:40;2.10;99.90
47336;DHT22;33068;51.990;5.926;2023-02-28T04:29:09;2.10;99.90
47336;DHT22;33068;51.990;5.926;2023-02-28T04:31:37;2.10;99.90
47336;DHT22;33068;51.990;5.926;2023-02-28T04:34:05;2.10;99.90
47336;DHT22;33068;51.990;5.926;2023-02-28T04:36:32;2.00;99.90
47336;DHT22;33068;51.990;5.926;2023-02-28T04:38:59;2.00;99.90
47336;DHT22;33068;51.990;5.926;2023-02-28T04:41:27;2.10;99.90
47336;DHT22;33068;51.990;5.926;2023-02-28T04:43:54;2.00;99.90
47336;DHT22;33068;51.990;5.926;2023-02-28T04:46:22;2.00;99.90
47336;DHT22;33068;51.990;5.926;2023-02-28T04:48:50;2.00;99.90
47336;DHT22;33068;51.990;5.926;2023-02-28T04:51:18;1.90;99.90
47336;DHT22;33068;51.990;5.926;2023-02-28T04:53:46;1.90;99.90
47336;DHT22;33068;51.990;5.926;2023-02-28T04:56:15;1.90;99.90
47336;DHT22;33068;51.990;5.926;2023-02-28T04:58:44;1.90;99.90
47336;DHT22;33068;51.990;5.926;2023-02-28T05:01:26;1.90;99.90
47336;DHT22;33068;51.990;5.926;2023-02-28T05:03:54;1.90;99.90
47336;DHT22;33068;51.990;5.926;2023-02-28T05:06:23;1.90;99.90
47336;DHT22;33068;51.990;5.926;2023-02-28T05:08:50;1.90;99.90
47336;DHT22;33068;51.990;5.926;2023-02-28T05:11:19;1.80;99.90
47336;DHT22;33068;51.990;5.926;2023-02-28T05:13:49;1.80;99.90
47336;DHT22;33068;51.990;5.926;2023-02-28T05:16:16;1.80;99.90
47336;DHT22;33068;51.990;5.926;2023-02-28T05:18:44;1.80;99.90
47336;DHT22;33068;51.990;5.926;2023-02-28T05:21:29;1.80;99.90
47336;DHT22;33068;51.990;5.926;2023-02-28T05:23:57;1.80;99.90
47336;DHT22;33068;51.990;5.926;2023-02-28T05:26:25;1.80;99.90
47336;DHT22;33068;51.990;5.926;2023-02-28T05:28:54;1.70;99.90
47336;DHT22;33068;51.990;5.926;2023-02-28T05:31:21;1.70;99.90
47336;DHT22;33068;51.990;5.926;2023-02-28T05:33:54;1.70;99.90
47336;DHT22;33068;51.990;5.926;2023-02-28T05:36:21;1.70;99.90
47336;DHT22;33068;51.990;5.926;2023-02-28T05:38:49;1.70;99.90
47336;DHT22;33068;51.990;5.926;2023-02-28T05:41:17;1.70;99.90
47336;DHT22;33068;51.990;5.926;2023-02-28T05:43:45;1.80;99.90
47336;DHT22;33068;51.990;5.926;2023-02-28T05:46:13;1.80;99.90
47336;DHT22;33068;51.990;5.926;2023-02-28T05:48:42;1.80;99.90
47336;DHT22;33068;51.990;5.926;2023-02-28T05:51:09;1.80;99.90
47336;DHT22;33068;51.990;5.926;2023-02-28T05:53:36;1.90;99.90
47336;DHT22;33068;51.990;5.926;2023-02-28T05:56:04;1.80;99.90
47336;DHT22;33068;51.990;5.926;2023-02-28T05:58:31;1.70;99.90
47336;DHT22;33068;51.990;5.926;2023-02-28T06:01:00;1.80;99.90
47336;DHT22;33068;51.990;5.926;2023-02-28T06:03:29;2.00;99.90
47336;DHT22;33068;51.990;5.926;2023-02-28T06:05:56;1.80;99.90
47336;DHT22;33068;51.990;5.926;2023-02-28T06:08:23;1.80;99.90
47336;DHT22;33068;51.990;5.926;2023-02-28T06:10:50;1.70;99.90
47336;DHT22;33068;51.990;5.926;2023-02-28T06:13:20;1.70;99.90
47336;DHT22;33068;51.990;5.926;2023-02-28T06:15:47;1.70;99.90
47336;DHT22;33068;51.990;5.926;2023-02-28T06:18:14;1.80;99.90
47336;DHT22;33068;51.990;5.926;2023-02-28T06:20:43;1.80;99.90
47336;DHT22;33068;51.990;5.926;2023-02-28T06:23:10;1.70;99.90
47336;DHT22;33068;51.990;5.926;2023-02-28T06:25:37;1.70;99.90
47336;DHT22;33068;51.990;5.926;2023-02-28T06:28:04;1.70;99.90
47336;DHT22;33068;51.990;5.926;2023-02-28T06:30:31;1.70;99.90
47336;DHT22;33068;51.990;5.926;2023-02-28T06:32:59;1.70;99.90
47336;DHT22;33068;51.990;5.926;2023-02-28T06:35:26;1.70;99.90
47336;DHT22;33068;51.990;5.926;2023-02-28T06:37:54;1.90;99.90
47336;DHT22;33068;51.990;5.926;2023-02-28T06:40:22;1.70;99.90
47336;DHT22;33068;51.990;5.926;2023-02-28T06:42:49;1.70;99.90
47336;DHT22;33068;51.990;5.926;2023-02-28T06:45:16;1.80;99.90
47336;DHT22;33068;51.990;5.926;2023-02-28T06:47:43;1.80;99.90
47336;DHT22;33068;51.990;5.926;2023-02-28T06:50:11;1.90;99.90
47336;DHT22;33068;51.990;5.926;2023-02-28T06:52:39;1.80;99.90
47336;DHT22;33068;51.990;5.926;2023-02-28T06:55:08;1.80;99.90
47336;DHT22;33068;51.990;5.926;2023-02-28T06:57:36;1.80;99.90
47336;DHT22;33068;51.990;5.926;2023-02-28T07:00:05;1.90;99.90
47336;DHT22;33068;51.990;5.926;2023-02-28T07:02:33;1.90;99.90
47336;DHT22;33068;51.990;5.926;2023-02-28T07:05:00;1.90;99.90
47336;DHT22;33068;51.990;5.926;2023-02-28T07:07:27;1.90;99.90
47336;DHT22;33068;51.990;5.926;2023-02-28T07:09:54;2.00;99.90
47336;DHT22;33068;51.990;5.926;2023-02-28T07:12:23;2.00;99.90
47336;DHT22;33068;51.990;5.926;2023-02-28T07:14:50;2.00;99.90
47336;DHT22;33068;51.990;5.926;2023-02-28T07:17:17;2.10;99.90
47336;DHT22;33068;51.990;5.926;2023-02-28T07:19:44;2.10;99.90
47336;DHT22;33068;51.990;5.926;2023-02-28T07:22:11;2.10;99.90
47336;DHT22;33068;51.990;5.926;2023-02-28T07:24:38;2.10;99.90
47336;DHT22;33068;51.990;5.926;2023-02-28T07:27:05;2.10;99.90
47336;DHT22;33068;51.990;5.926;2023-02-28T07:29:34;2.10;99.90
47336;DHT22;33068;51.990;5.926;2023-02-28T07:32:01;2.00;99.90
47336;DHT22;33068;51.990;5.926;2023-02-28T07:34:28;2.00;99.90
47336;DHT22;33068;51.990;5.926;2023-02-28T07:36:55;2.00;99.90
47336;DHT22;33068;51.990;5.926;2023-02-28T07:39:22;2.00;99.90
47336;DHT22;33068;51.990;5.926;2023-02-28T07:41:49;2.00;99.90
47336;DHT22;33068;51.990;5.926;2023-02-28T07:44:16;2.00;99.90
47336;DHT22;33068;51.990;5.926;2023-02-28T07:46:45;2.30;99.90
47336;DHT22;33068;51.990;5.926;2023-02-28T07:49:12;2.10;99.90
47336;DHT22;33068;51.990;5.926;2023-02-28T07:51:39;2.20;99.90
47336;DHT22;33068;51.990;5.926;2023-02-28T07:54:06;2.20;99.90
47336;DHT22;33068;51.990;5.926;2023-02-28T07:56:33;2.10;99.90
47336;DHT22;33068;51.990;5.926;2023-02-28T07:59:00;2.10;99.90
47336;DHT22;33068;51.990;5.926;2023-02-28T08:01:28;2.10;99.90
47336;DHT22;33068;51.990;5.926;2023-02-28T08:03:56;2.10;99.90
47336;DHT22;33068;51.990;5.926;2023-02-28T08:06:24;2.10;99.90
47336;DHT22;33068;51.990;5.926;2023-02-28T08:08:52;2.00;99.90
47336;DHT22;33068;51.990;5.926;2023-02-28T08:11:21;2.00;99.90
47336;DHT22;33068;51.990;5.926;2023-02-28T08:13:48;1.90;99.90
47336;DHT22;33068;51.990;5.926;2023-02-28T08:16:16;2.00;99.90
47336;DHT22;33068;51.990;5.926;2023-02-28T08:18:48;2.00;99.90
47336;DHT22;33068;51.990;5.926;2023-02-28T08:21:17;2.10;99.90
47336;DHT22;33068;51.990;5.926;2023-02-28T08:23:46;2.10;99.90
47336;DHT22;33068;51.990;5.926;2023-02-28T08:26:13;2.10;99.90
47336;DHT22;33068;51.990;5.926;2023-02-28T08:28:40;2.10;99.90
47336;DHT22;33068;51.990;5.926;2023-02-28T08:31:08;2.10;99.90
47336;DHT22;33068;51.990;5.926;2023-02-28T08:33:36;2.20;99.90
47336;DHT22;33068;51.990;5.926;2023-02-28T08:36:05;2.10;99.50
47336;DHT22;33068;51.990;5.926;2023-02-28T08:38:34;2.10;98.90
47336;DHT22;33068;51.990;5.926;2023-02-28T08:41:03;2.20;98.70
47336;DHT22;33068;51.990;5.926;2023-02-28T08:43:33;2.10;98.80
47336;DHT22;33068;51.990;5.926;2023-02-28T08:46:00;2.20;99.40
47336;DHT22;33068;51.990;5.926;2023-02-28T08:48:29;2.10;98.70
47336;DHT22;33068;51.990;5.926;2023-02-28T08:50:57;2.20;99.10
47336;DHT22;33068;51.990;5.926;2023-02-28T08:53:24;2.20;99.00
47336;DHT22;33068;51.990;5.926;2023-02-28T08:56:00;2.10;98.70
47336;DHT22;33068;51.990;5.926;2023-02-28T08:58:28;2.10;99.40
47336;DHT22;33068;51.990;5.926;2023-02-28T09:00:56;2.10;99.30
47336;DHT22;33068;51.990;5.926;2023-02-28T09:03:23;2.20;99.00
47336;DHT22;33068;51.990;5.926;2023-02-28T09:05:55;2.30;98.70
47336;DHT22;33068;51.990;5.926;2023-02-28T09:08:23;2.30;98.30
47336;DHT22;33068;51.990;5.926;2023-02-28T09:10:50;2.30;97.60
47336;DHT22;33068;51.990;5.926;2023-02-28T09:13:19;2.30;97.50
47336;DHT22;33068;51.990;5.926;2023-02-28T09:15:46;2.30;97.10
47336;DHT22;33068;51.990;5.926;2023-02-28T09:18:14;2.30;97.50
47336;DHT22;33068;51.990;5.926;2023-02-28T09:20:42;2.40;97.70
47336;DHT22;33068;51.990;5.926;2023-02-28T09:23:10;2.40;97.70
47336;DHT22;33068;51.990;5.926;2023-02-28T09:25:37;2.50;96.10
47336;DHT22;33068;51.990;5.926;2023-02-28T09:28:04;2.60;94.60
47336;DHT22;33068;51.990;5.926;2023-02-28T09:30:33;2.70;94.70
47336;DHT22;33068;51.990;5.926;2023-02-28T09:33:00;2.80;94.70
47336;DHT22;33068;51.990;5.926;2023-02-28T09:35:27;2.80;95.20
47336;DHT22;33068;51.990;5.926;2023-02-28T09:37:56;3.10;95.00
47336;DHT22;33068;51.990;5.926;2023-02-28T09:40:24;2.80;93.90
47336;DHT22;33068;51.990;5.926;2023-02-28T09:42:55;2.90;95.10
47336;DHT22;33068;51.990;5.926;2023-02-28T09:45:26;3.00;94.70
47336;DHT22;33068;51.990;5.926;2023-02-28T09:47:58;3.30;94.70
47336;DHT22;33068;51.990;5.926;2023-02-28T09:50:31;3.20;94.10
47336;DHT22;33068;51.990;5.926;2023-02-28T09:53:05;3.30;93.90
47336;DHT22;33068;51.990;5.926;2023-02-28T09:55:37;3.60;93.40
47336;DHT22;33068;51.990;5.926;2023-02-28T09:58:11;4.00;92.90
47336;DHT22;33068;51.990;5.926;2023-02-28T10:00:42;4.20;93.40
47336;DHT22;33068;51.990;5.926;2023-02-28T10:03:26;4.40;92.80
47336;DHT22;33068;51.990;5.926;2023-02-28T10:05:58;4.50;92.10
47336;DHT22;33068;51.990;5.926;2023-02-28T10:08:33;4.70;92.20
47336;DHT22;33068;51.990;5.926;2023-02-28T10:11:06;4.80;92.20
47336;DHT22;33068;51.990;5.926;2023-02-28T10:13:36;4.80;91.00
47336;DHT22;33068;51.990;5.926;2023-02-28T10:16:07;4.80;90.80
47336;DHT22;33068;51.990;5.926;2023-02-28T10:18:43;4.80;90.80
47336;DHT22;33068;51.990;5.926;2023-02-28T10:21:20;5.00;90.80
47336;DHT22;33068;51.990;5.926;2023-02-28T10:23:48;5.10;89.80
47336;DHT22;33068;51.990;5.926;2023-02-28T10:26:17;5.10;89.60
47336;DHT22;33068;51.990;5.926;2023-02-28T10:28:45;5.10;90.00
47336;DHT22;33068;51.990;5.926;2023-02-28T10:31:15;5.30;90.00
47336;DHT22;33068;51.990;5.926;2023-02-28T10:33:46;5.40;89.80
47336;DHT22;33068;51.990;5.926;2023-02-28T10:36:17;5.30;88.50
47336;DHT22;33068;51.990;5.926;2023-02-28T10:38:46;5.40;89.50
47336;DHT22;33068;51.990;5.926;2023-02-28T10:41:27;5.40;90.20
47336;DHT22;33068;51.990;5.926;2023-02-28T10:44:13;5.70;90.20
47336;DHT22;33068;51.990;5.926;2023-02-28T10:46:41;5.70;89.50
47336;DHT22;33068;51.990;5.926;2023-02-28T10:49:15;5.60;89.00
47336;DHT22;33068;51.990;5.926;2023-02-28T10:51:45;5.60;90.00
47336;DHT22;33068;51.990;5.926;2023-02-28T10:54:19;5.70;89.90
47336;DHT22;33068;51.990;5.926;2023-02-28T10:57:05;5.70;89.60
47336;DHT22;33068;51.990;5.926;2023-02-28T10:59:34;6.10;88.90
47336;DHT22;33068;51.990;5.926;2023-02-28T11:02:02;5.80;89.90
47336;DHT22;33068;51.990;5.926;2023-02-28T11:04:35;5.90;89.40
47336;DHT22;33068;51.990;5.926;2023-02-28T11:07:10;6.10;89.70
47336;DHT22;33068;51.990;5.926;2023-02-28T11:09:46;6.30;88.70
47336;DHT22;33068;51.990;5.926;2023-02-28T11:12:23;6.50;89.60
47336;DHT22;33068;51.990;5.926;2023-02-28T11:14:51;6.60;87.90
47336;DHT22;33068;51.990;5.926;2023-02-28T11:17:21;6.50;88.60
47336;DHT22;33068;51.990;5.926;2023-02-28T11:19:51;6.40;89.00
47336;DHT22;33068;51.990;5.926;2023-02-28T11:22:22;6.30;89.60
47336;DHT22;33068;51.990;5.926;2023-02-28T11:24:53;6.40;88.40
47336;DHT22;33068;51.990;5.926;2023-02-28T11:27:45;6.60;87.60
47336;DHT22;33068;51.990;5.926;2023-02-28T11:30:30;6.80;88.20
47336;DHT22;33068;51.990;5.926;2023-02-28T11:32:57;7.00;87.50
47336;DHT22;33068;51.990;5.926;2023-02-28T11:35:28;7.00;86.70
47336;DHT22;33068;51.990;5.926;2023-02-28T11:37:57;6.80;85.60
47336;DHT22;33068;51.990;5.926;2023-02-28T11:40:30;6.80;87.30
47336;DHT22;33068;51.990;5.926;2023-02-28T11:43:10;6.80;85.70
47336;DHT22;33068;51.990;5.926;2023-02-28T11:45:49;6.90;86.60
47336;DHT22;33068;51.990;5.926;2023-02-28T11:48:26;7.10;85.30
47336;DHT22;33068;51.990;5.926;2023-02-28T11:51:08;6.90;85.00
47336;DHT22;33068;51.990;5.926;2023-02-28T11:56:44;6.90;85.10
47336;DHT22;33068;51.990;5.926;2023-02-28T11:59:34;6.90;85.30
47336;DHT22;33068;51.990;5.926;2023-02-28T12:05:24;7.00;84.10
47336;DHT22;33068;51.990;5.926;2023-02-28T12:08:06;7.10;85.40
47336;DHT22;33068;51.990;5.926;2023-02-28T12:10:44;7.00;83.20
47336;DHT22;33068;51.990;5.926;2023-02-28T12:13:23;7.00;84.60
47336;DHT22;33068;51.990;5.926;2023-02-28T12:16:21;7.40;84.20
47336;DHT22;33068;51.990;5.926;2023-02-28T12:19:03;7.50;83.10
47336;DHT22;33068;51.990;5.926;2023-02-28T12:21:43;7.40;82.30
47336;DHT22;33068;51.990;5.926;2023-02-28T12:24:33;7.40;83.20
47336;DHT22;33068;51.990;5.926;2023-02-28T12:27:02;7.50;82.90
47336;DHT22;33068;51.990;5.926;2023-02-28T12:29:37;7.40;82.90
47336;DHT22;33068;51.990;5.926;2023-02-28T12:32:11;7.60;83.60
47336;DHT22;33068;51.990;5.926;2023-02-28T12:34:43;7.50;82.20
47336;DHT22;33068;51.990;5.926;2023-02-28T12:37:15;7.30;83.30
47336;DHT22;33068;51.990;5.926;2023-02-28T12:39:47;7.30;82.70
47336;DHT22;33068;51.990;5.926;2023-02-28T12:42:24;7.40;81.70
47336;DHT22;33068;51.990;5.926;2023-02-28T12:44:55;7.30;82.60
47336;DHT22;33068;51.990;5.926;2023-02-28T12:47:23;7.40;83.00
47336;DHT22;33068;51.990;5.926;2023-02-28T12:49:53;7.50;82.00
47336;DHT22;33068;51.990;5.926;2023-02-28T12:52:28;7.70;82.10
47336;DHT22;33068;51.990;5.926;2023-02-28T12:55:03;7.70;81.60
47336;DHT22;33068;51.990;5.926;2023-02-28T12:57:38;7.90;80.10
47336;DHT22;33068;51.990;5.926;2023-02-28T13:00:11;7.70;80.00
47336;DHT22;33068;51.990;5.926;2023-02-28T13:03:06;7.60;79.70
47336;DHT22;33068;51.990;5.926;2023-02-28T13:05:55;7.50;80.20
47336;DHT22;33068;51.990;5.926;2023-02-28T13:11:28;7.80;80.10
47336;DHT22;33068;51.990;5.926;2023-02-28T13:14:01;8.10;80.30
47336;DHT22;33068;51.990;5.926;2023-02-28T13:19:35;8.00;79.20
47336;DHT22;33068;51.990;5.926;2023-02-28T13:22:04;7.90;79.00
47336;DHT22;33068;51.990;5.926;2023-02-28T13:24:41;7.80;79.30
47336;DHT22;33068;51.990;5.926;2023-02-28T13:27:22;7.40;80.50
47336;DHT22;33068;51.990;5.926;2023-02-28T13:29:52;7.80;78.80
47336;DHT22;33068;51.990;5.926;2023-02-28T13:32:40;7.80;81.30
47336;DHT22;33068;51.990;5.926;2023-02-28T13:35:38;7.80;81.20
47336;DHT22;33068;51.990;5.926;2023-02-28T13:38:34;8.00;81.30
47336;DHT22;33068;51.990;5.926;2023-02-28T13:44:08;7.90;79.60
47336;DHT22;33068;51.990;5.926;2023-02-28T13:47:15;8.00;79.00
47336;DHT22;33068;51.990;5.926;2023-02-28T13:49:27;7.70;80.40
47336;DHT22;33068;51.990;5.926;2023-02-28T13:52:06;8.00;79.80
47336;DHT22;33068;51.990;5.926;2023-02-28T13:54:49;8.00;80.10
47336;DHT22;33068;51.990;5.926;2023-02-28T13:57:26;7.80;80.70
47336;DHT22;33068;51.990;5.926;2023-02-28T14:00:13;7.70;80.60
47336;DHT22;33068;51.990;5.926;2023-02-28T14:03:06;7.70;80.00
47336;DHT22;33068;51.990;5.926;2023-02-28T14:05:36;7.70;80.80
47336;DHT22;33068;51.990;5.926;2023-02-28T14:08:06;7.90;81.80
47336;DHT22;33068;51.990;5.926;2023-02-28T14:10:42;7.90;81.30
47336;DHT22;33068;51.990;5.926;2023-02-28T14:13:39;8.10;79.20
47336;DHT22;33068;51.990;5.926;2023-02-28T14:16:12;8.20;81.40
47336;DHT22;33068;51.990;5.926;2023-02-28T14:18:42;8.00;79.50
47336;DHT22;33068;51.990;5.926;2023-02-28T14:21:21;7.80;80.30
47336;DHT22;33068;51.990;5.926;2023-02-28T14:27:09;7.40;81.20
47336;DHT22;33068;51.990;5.926;2023-02-28T14:32:34;7.10;82.10
47336;DHT22;33068;51.990;5.926;2023-02-28T14:35:14;7.30;83.10
47336;DHT22;33068;51.990;5.926;2023-02-28T14:37:44;7.30;81.70
47336;DHT22;33068;51.990;5.926;2023-02-28T14:40:15;7.30;82.30
47336;DHT22;33068;51.990;5.926;2023-02-28T14:42:47;7.50;82.00
47336;DHT22;33068;51.990;5.926;2023-02-28T14:45:18;7.40;82.30
47336;DHT22;33068;51.990;5.926;2023-02-28T14:47:48;7.50;81.10
47336;DHT22;33068;51.990;5.926;2023-02-28T14:50:20;7.60;82.50
47336;DHT22;33068;51.990;5.926;2023-02-28T14:52:50;7.40;81.40
47336;DHT22;33068;51.990;5.926;2023-02-28T14:55:22;7.30;82.10
47336;DHT22;33068;51.990;5.926;2023-02-28T14:57:54;7.30;82.40
47336;DHT22;33068;51.990;5.926;2023-02-28T15:00:24;7.20;81.20
47336;DHT22;33068;51.990;5.926;2023-02-28T15:02:53;7.30;82.20
47336;DHT22;33068;51.990;5.926;2023-02-28T15:05:27;7.20;81.20
47336;DHT22;33068;51.990;5.926;2023-02-28T15:08:04;7.10;82.70
47336;DHT22;33068;51.990;5.926;2023-02-28T15:10:33;7.10;82.30
47336;DHT22;33068;51.990;5.926;2023-02-28T15:13:02;7.20;82.00
47336;DHT22;33068;51.990;5.926;2023-02-28T15:15:41;7.30;82.20
47336;DHT22;33068;51.990;5.926;2023-02-28T15:18:21;7.40;81.60
47336;DHT22;33068;51.990;5.926;2023-02-28T15:20:49;7.30;81.40
47336;DHT22;33068;51.990;5.926;2023-02-28T15:23:18;7.30;81.30
47336;DHT22;33068;51.990;5.926;2023-02-28T15:25:46;7.40;81.30
47336;DHT22;33068;51.990;5.926;2023-02-28T15:28:17;7.70;81.80
47336;DHT22;33068;51.990;5.926;2023-02-28T15:30:54;7.90;80.50
47336;DHT22;33068;51.990;5.926;2023-02-28T15:33:23;8.00;79.60
47336;DHT22;33068;51.990;5.926;2023-02-28T15:35:51;7.90;80.70
47336;DHT22;33068;51.990;5.926;2023-02-28T15:38:22;7.60;79.50
47336;DHT22;33068;51.990;5.926;2023-02-28T15:40:52;7.60;80.90
47336;DHT22;33068;51.990;5.926;2023-02-28T15:43:26;7.30;81.00
47336;DHT22;33068;51.990;5.926;2023-02-28T15:45:57;7.40;80.50
47336;DHT22;33068;51.990;5.926;2023-02-28T15:48:27;7.50;80.70
47336;DHT22;33068;51.990;5.926;2023-02-28T15:50:57;7.70;80.30
47336;DHT22;33068;51.990;5.926;2023-02-28T15:53:31;7.90;80.40
47336;DHT22;33068;51.990;5.926;2023-02-28T15:56:01;7.80;80.10
47336;DHT22;33068;51.990;5.926;2023-02-28T15:58:29;8.00;79.80
47336;DHT22;33068;51.990;5.926;2023-02-28T16:01:19;7.80;80.40
47336;DHT22;33068;51.990;5.926;2023-02-28T16:03:51;7.60;80.20
47336;DHT22;33068;51.990;5.926;2023-02-28T16:06:35;7.40;81.30
47336;DHT22;33068;51.990;5.926;2023-02-28T16:09:04;7.10;81.70
47336;DHT22;33068;51.990;5.926;2023-02-28T16:11:35;6.70;82.40
47336;DHT22;33068;51.990;5.926;2023-02-28T16:14:03;6.50;82.60
47336;DHT22;33068;51.990;5.926;2023-02-28T16:16:31;6.30;84.80
47336;DHT22;33068;51.990;5.926;2023-02-28T16:19:00;6.20;85.50
47336;DHT22;33068;51.990;5.926;2023-02-28T16:21:27;6.00;84.40
47336;DHT22;33068;51.990;5.926;2023-02-28T16:23:54;5.90;85.20
47336;DHT22;33068;51.990;5.926;2023-02-28T16:26:23;5.80;85.30
47336;DHT22;33068;51.990;5.926;2023-02-28T16:28:52;5.80;85.70
47336;DHT22;33068;51.990;5.926;2023-02-28T16:31:19;5.70;85.90
47336;DHT22;33068;51.990;5.926;2023-02-28T16:33:47;5.80;87.40
47336;DHT22;33068;51.990;5.926;2023-02-28T16:36:17;5.50;87.10
47336;DHT22;33068;51.990;5.926;2023-02-28T16:38:45;5.60;88.00